createdAt,value
2023-10-29T00:00:20.593Z,98520.12
2023-10-29T00:02:47.733Z,98518.90
2023-10-29T00:05:14.685Z,98514.44
2023-10-29T00:07:41.641Z,98514.63
2023-10-29T00:10:09.186Z,98513.55
2023-10-29T00:12:36.770Z,98516.85
2023-10-29T00:15:05.634Z,98523.05
2023-10-29T00:17:32.578Z,98524.97
2023-10-29T00:20:00.245Z,98529.34
2023-10-29T00:22:28.007Z,98533.29
2023-10-29T00:24:54.573Z,98535.79
2023-10-29T00:27:21.483Z,98536.36
2023-10-29T00:29:48.786Z,98544.36
2023-10-29T00:32:16.602Z,98547.52
2023-10-29T00:34:43.467Z,98549.64
2023-10-29T00:37:10.386Z,98554.61
2023-10-29T00:39:37.365Z,98558.77
2023-10-29T00:42:04.173Z,98559.86
2023-10-29T00:44:31.042Z,98556.96
2023-10-29T00:46:58.390Z,98558.46
2023-10-29T00:49:25.213Z,98558.27
2023-10-29T00:51:52.186Z,98559.61
2023-10-29T00:54:19.202Z,98561.49
2023-10-29T00:56:45.962Z,98562.02
2023-10-29T00:59:13.193Z,98565.02
2023-10-29T01:01:40.058Z,98563.81
2023-10-29T01:04:07.653Z,98565.59
2023-10-29T01:06:39.352Z,98567.86
2023-10-29T01:09:07.541Z,98569.13
2023-10-29T01:11:34.621Z,98573.29
2023-10-29T01:14:02.154Z,98574.86
2023-10-29T01:16:29.284Z,98575.89
2023-10-29T01:18:57.278Z,98577.10
2023-10-29T01:21:25.015Z,98578.77
2023-10-29T01:23:52.809Z,98577.77
2023-10-29T01:26:19.620Z,98578.77
2023-10-29T01:28:46.976Z,98582.84
2023-10-29T01:31:14.463Z,98583.64
2023-10-29T01:33:41.273Z,98588.64
2023-10-29T01:36:08.132Z,98591.76
2023-10-29T01:38:34.864Z,98586.29
2023-10-29T01:41:01.611Z,98584.85
2023-10-29T01:43:28.641Z,98590.36
2023-10-29T01:45:55.437Z,98594.18
2023-10-29T01:48:24.451Z,98591.48
2023-10-29T01:50:51.639Z,98597.91
2023-10-29T01:53:18.470Z,98601.17
2023-10-29T01:55:45.617Z,98602.52
2023-10-29T01:58:13.074Z,98604.13
2023-10-29T02:00:40.333Z,98612.82
2023-10-29T02:03:07.365Z,98614.27
2023-10-29T02:05:34.839Z,98621.36
2023-10-29T02:08:01.895Z,98625.96
2023-10-29T02:10:28.826Z,98632.35
2023-10-29T02:12:55.691Z,98636.66
2023-10-29T02:15:22.412Z,98637.98
2023-10-29T02:17:49.224Z,98645.13
2023-10-29T02:20:16.197Z,98645.52
2023-10-29T02:22:43.041Z,98651.65
2023-10-29T02:25:09.773Z,98655.17
2023-10-29T02:27:36.621Z,98656.30
2023-10-29T02:30:03.886Z,98664.83
2023-10-29T02:32:30.903Z,98666.68
2023-10-29T02:34:57.873Z,98662.73
2023-10-29T02:37:24.704Z,98668.39
2023-10-29T02:39:52.586Z,98678.58
2023-10-29T02:42:19.918Z,98676.48
2023-10-29T02:44:47.445Z,98688.95
2023-10-29T02:47:14.423Z,98698.97
2023-10-29T02:49:41.262Z,98705.48
2023-10-29T02:52:08.006Z,98707.64
2023-10-29T02:54:34.955Z,98710.79
2023-10-29T02:57:03.617Z,98717.14
2023-10-29T02:59:30.476Z,98727.37
2023-10-29T03:01:57.333Z,98729.35
2023-10-29T03:04:24.464Z,98732.48
2023-10-29T03:06:51.234Z,98738.73
2023-10-29T03:09:18.150Z,98733.83
2023-10-29T03:11:45.412Z,98737.81
2023-10-29T03:14:12.140Z,98740.56
2023-10-29T03:16:38.922Z,98748.05
2023-10-29T03:19:06.644Z,98749.72
2023-10-29T03:21:34.715Z,98757.16
2023-10-29T03:24:01.493Z,98763.46
2023-10-29T03:26:28.412Z,98767.09
2023-10-29T03:28:55.267Z,98769.91
2023-10-29T03:31:22.106Z,98775.89
2023-10-29T03:33:48.948Z,98772.98
2023-10-29T03:36:15.870Z,98767.98
2023-10-29T03:38:42.687Z,98771.50
2023-10-29T03:41:29.923Z,98767.29
2023-10-29T03:43:57.802Z,98764.80
2023-10-29T03:46:24.951Z,98761.63
2023-10-29T03:48:52.212Z,98765.30
2023-10-29T03:51:19.657Z,98761.95
2023-10-29T03:53:46.473Z,98760.55
2023-10-29T03:56:13.444Z,98759.58
2023-10-29T03:58:40.427Z,98758.98
2023-10-29T04:01:07.173Z,98761.09
2023-10-29T04:03:34.346Z,98760.15
2023-10-29T04:06:10.586Z,98753.56
2023-10-29T04:08:38.363Z,98754.36
2023-10-29T04:11:05.698Z,98757.38
2023-10-29T04:13:33.724Z,98753.10
2023-10-29T04:16:00.883Z,98751.60
2023-10-29T04:18:32.147Z,98737.17
2023-10-29T04:20:59.108Z,98727.40
2023-10-29T04:23:26.137Z,98717.26
2023-10-29T04:25:52.956Z,98725.64
2023-10-29T04:28:19.727Z,98733.77
2023-10-29T04:30:47.287Z,98740.00
2023-10-29T04:33:14.706Z,98738.70
2023-10-29T04:35:41.574Z,98739.11
2023-10-29T04:38:08.404Z,98743.86
2023-10-29T04:40:35.552Z,98752.46
2023-10-29T04:43:03.407Z,98762.73
2023-10-29T04:45:30.469Z,98761.50
2023-10-29T04:47:57.366Z,98759.15
2023-10-29T04:50:24.160Z,98761.26
2023-10-29T04:52:50.881Z,98765.29
2023-10-29T04:55:17.648Z,98780.92
2023-10-29T04:57:44.465Z,98791.16
2023-10-29T05:00:12.171Z,98793.31
2023-10-29T05:02:39.128Z,98793.85
2023-10-29T05:05:07.754Z,98799.52
2023-10-29T05:07:36.142Z,98809.94
2023-10-29T05:10:04.102Z,98813.32
2023-10-29T05:12:31.062Z,98814.98
2023-10-29T05:14:57.932Z,98817.77
2023-10-29T05:17:24.871Z,98827.48
2023-10-29T05:19:51.670Z,98833.27
2023-10-29T05:22:18.718Z,98844.33
2023-10-29T05:24:45.787Z,98845.55
2023-10-29T05:27:13.426Z,98855.73
2023-10-29T05:29:40.386Z,98858.92
2023-10-29T05:32:07.212Z,98863.10
2023-10-29T05:34:34.372Z,98869.81
2023-10-29T05:37:01.205Z,98870.73
2023-10-29T05:39:27.962Z,98871.09
2023-10-29T05:41:54.753Z,98873.33
2023-10-29T05:44:21.665Z,98879.88
2023-10-29T05:46:48.998Z,98883.90
2023-10-29T05:49:15.731Z,98889.50
2023-10-29T05:51:42.769Z,98893.48
2023-10-29T05:54:09.449Z,98899.80
2023-10-29T05:56:36.361Z,98904.66
2023-10-29T05:59:03.402Z,98909.13
2023-10-29T06:01:30.394Z,98916.66
2023-10-29T06:03:57.479Z,98920.25
2023-10-29T06:06:24.446Z,98926.73
2023-10-29T06:08:51.320Z,98930.73
2023-10-29T06:11:18.037Z,98933.24
2023-10-29T06:13:45.372Z,98939.44
2023-10-29T06:16:12.147Z,98946.40
2023-10-29T06:18:39.033Z,98943.57
2023-10-29T06:21:06.162Z,98938.61
2023-10-29T06:23:33.017Z,98940.80
2023-10-29T06:25:59.891Z,98939.39
2023-10-29T06:28:27.041Z,98938.58
2023-10-29T06:30:54.204Z,98943.36
2023-10-29T06:33:21.133Z,98948.66
2023-10-29T06:35:48.211Z,98945.49
2023-10-29T06:38:15.378Z,98947.75
2023-10-29T06:40:42.170Z,98953.83
2023-10-29T06:43:11.633Z,98954.45
2023-10-29T06:45:39.949Z,98952.50
2023-10-29T06:48:06.982Z,98949.27
2023-10-29T06:50:34.817Z,98945.25
2023-10-29T06:53:02.936Z,98954.05
2023-10-29T06:55:30.096Z,98960.39
2023-10-29T06:57:57.029Z,98971.71
2023-10-29T07:00:23.891Z,98979.70
2023-10-29T07:02:51.420Z,98981.66
2023-10-29T07:05:18.509Z,98984.70
2023-10-29T07:07:45.323Z,98983.34
2023-10-29T07:10:12.099Z,98986.90
2023-10-29T07:12:40.381Z,98984.88
2023-10-29T07:15:10.692Z,98989.14
2023-10-29T07:17:37.558Z,98992.70
2023-10-29T07:20:05.162Z,98997.86
2023-10-29T07:22:32.234Z,99003.30
2023-10-29T07:24:58.951Z,99005.98
2023-10-29T07:27:25.928Z,99008.80
2023-10-29T07:29:52.890Z,99004.25
2023-10-29T07:32:19.820Z,99007.22
2023-10-29T07:34:46.991Z,99013.43
2023-10-29T07:37:14.232Z,99013.41
2023-10-29T07:39:41.029Z,99010.98
2023-10-29T07:42:08.019Z,99014.31
2023-10-29T07:44:34.964Z,99013.90
2023-10-29T07:47:08.721Z,99013.66
2023-10-29T07:49:38.586Z,99015.40
2023-10-29T07:52:06.518Z,99019.44
2023-10-29T07:54:33.245Z,99015.77
2023-10-29T07:57:00.926Z,99010.21
2023-10-29T07:59:27.846Z,99004.56
2023-10-29T08:01:54.816Z,99004.98
2023-10-29T08:04:21.692Z,99001.60
2023-10-29T08:06:48.613Z,99004.06
2023-10-29T08:09:17.793Z,99007.20
2023-10-29T08:11:44.951Z,99012.42
2023-10-29T08:14:11.872Z,99015.41
2023-10-29T08:16:38.818Z,99014.83
2023-10-29T08:19:06.182Z,99019.88
2023-10-29T08:21:33.009Z,99026.14
2023-10-29T08:23:59.891Z,99030.28
2023-10-29T08:26:29.661Z,99024.58
2023-10-29T08:28:56.536Z,99027.29
2023-10-29T08:31:23.379Z,99033.56
2023-10-29T08:33:50.193Z,99034.86
2023-10-29T08:36:17.447Z,99039.88
2023-10-29T08:38:44.465Z,99047.23
2023-10-29T08:41:15.671Z,99051.40
2023-10-29T08:43:42.517Z,99052.42
2023-10-29T08:46:09.502Z,99050.41
2023-10-29T08:48:38.677Z,99049.66
2023-10-29T08:51:06.264Z,99049.21
2023-10-29T08:53:34.526Z,99052.21
2023-10-29T08:56:03.777Z,99055.48
2023-10-29T08:58:30.702Z,99064.41
2023-10-29T09:00:58.563Z,99069.80
2023-10-29T09:03:26.330Z,99071.77
2023-10-29T09:05:53.980Z,99080.52
2023-10-29T09:08:21.686Z,99080.35
2023-10-29T09:10:48.493Z,99083.09
2023-10-29T09:13:19.845Z,99086.22
2023-10-29T09:15:47.012Z,99086.52
2023-10-29T09:18:13.769Z,99088.46
2023-10-29T09:20:47.148Z,99092.58
2023-10-29T09:23:15.601Z,99094.48
2023-10-29T09:25:45.826Z,99095.70
2023-10-29T09:28:14.631Z,99095.48
2023-10-29T09:30:41.964Z,99092.79
2023-10-29T09:33:09.429Z,99091.66
2023-10-29T09:35:36.999Z,99096.86
2023-10-29T09:38:04.126Z,99091.95
2023-10-29T09:40:31.172Z,99102.98
2023-10-29T09:42:57.922Z,99107.39
2023-10-29T09:45:26.002Z,99103.04
2023-10-29T09:47:53.910Z,99103.80
2023-10-29T09:50:22.664Z,99100.64
2023-10-29T09:52:50.892Z,99098.29
2023-10-29T09:55:23.904Z,99100.38
2023-10-29T09:57:51.234Z,99099.64
2023-10-29T10:00:18.300Z,99102.15
2023-10-29T10:02:51.611Z,99101.13
2023-10-29T10:05:19.459Z,99100.62
2023-10-29T10:07:46.507Z,99101.38
2023-10-29T10:10:13.662Z,99101.55
2023-10-29T10:12:47.378Z,99097.38
2023-10-29T10:15:14.756Z,99099.08
2023-10-29T10:17:51.153Z,99095.23
2023-10-29T10:20:21.922Z,99102.41
2023-10-29T10:23:05.248Z,99100.70
2023-10-29T10:25:32.903Z,99095.55
2023-10-29T10:28:00.368Z,99098.64
2023-10-29T10:30:45.133Z,99098.59
2023-10-29T10:33:21.074Z,99092.94
2023-10-29T10:35:55.100Z,99093.05
2023-10-29T10:38:23.086Z,99089.88
2023-10-29T10:41:02.204Z,99085.19
2023-10-29T10:43:29.146Z,99089.26
2023-10-29T10:45:56.223Z,99093.48
2023-10-29T10:48:23.447Z,99091.50
2023-10-29T10:50:50.810Z,99089.71
2023-10-29T10:53:17.523Z,99097.60
2023-10-29T10:55:59.548Z,99094.52
2023-10-29T10:58:30.886Z,99094.66
2023-10-29T11:00:57.735Z,99093.89
2023-10-29T11:03:32.499Z,99100.27
2023-10-29T11:06:02.930Z,99105.77
2023-10-29T11:08:29.957Z,99108.95
2023-10-29T11:10:57.897Z,99113.98
2023-10-29T11:13:24.946Z,99115.33
2023-10-29T11:15:52.022Z,99121.64
2023-10-29T11:18:32.827Z,99118.49
2023-10-29T11:21:06.640Z,99116.33
2023-10-29T11:23:35.481Z,99120.05
2023-10-29T11:26:22.299Z,99121.25
2023-10-29T11:28:51.242Z,99121.27
2023-10-29T11:31:19.226Z,99118.11
2023-10-29T11:33:47.482Z,99112.65
2023-10-29T11:36:34.419Z,99108.31
2023-10-29T11:39:20.219Z,99107.19
2023-10-29T11:41:47.077Z,99110.16
2023-10-29T11:44:30.155Z,99115.89
2023-10-29T11:46:57.185Z,99121.48
2023-10-29T11:49:27.623Z,99120.41
2023-10-29T11:52:03.660Z,99123.27
2023-10-29T11:54:33.082Z,99127.31
2023-10-29T11:57:00.385Z,99125.86
2023-10-29T11:59:27.278Z,99118.66
2023-10-29T12:01:54.028Z,99116.05
2023-10-29T12:04:20.949Z,99113.31
2023-10-29T12:06:49.276Z,99111.02
2023-10-29T12:09:17.408Z,99109.18
2023-10-29T12:11:49.852Z,99110.95
2023-10-29T12:14:34.236Z,99106.59
2023-10-29T12:17:00.986Z,99107.77
2023-10-29T12:19:37.979Z,99113.19
2023-10-29T12:22:28.202Z,99112.23
2023-10-29T12:24:59.174Z,99114.45
2023-10-29T12:27:26.375Z,99119.09
2023-10-29T12:29:53.707Z,99128.41
2023-10-29T12:32:24.735Z,99125.76
2023-10-29T12:34:53.172Z,99125.01
2023-10-29T12:37:29.486Z,99119.86
2023-10-29T12:40:00.009Z,99114.69
2023-10-29T12:42:55.550Z,99115.39
2023-10-29T12:45:31.167Z,99121.54
2023-10-29T12:48:12.013Z,99125.27
2023-10-29T12:50:45.448Z,99122.02
2023-10-29T12:53:12.294Z,99122.95
2023-10-29T12:55:45.569Z,99130.94
2023-10-29T12:58:12.319Z,99127.73
2023-10-29T13:00:39.201Z,99121.34
2023-10-29T13:03:06.296Z,99122.25
2023-10-29T13:05:34.278Z,99119.15
2023-10-29T13:08:01.230Z,99115.30
2023-10-29T13:10:28.076Z,99114.70
2023-10-29T13:12:55.006Z,99116.97
2023-10-29T13:15:22.204Z,99114.54
2023-10-29T13:17:49.164Z,99116.73
2023-10-29T13:20:16.278Z,99118.40
2023-10-29T13:22:44.581Z,99125.71
2023-10-29T13:25:12.795Z,99127.81
2023-10-29T13:27:43.441Z,99135.98
2023-10-29T13:30:10.993Z,99139.75
2023-10-29T13:32:38.504Z,99137.04
2023-10-29T13:35:05.902Z,99140.21
2023-10-29T13:37:32.738Z,99145.80
2023-10-29T13:39:59.582Z,99158.52
2023-10-29T13:42:26.477Z,99156.80
2023-10-29T13:44:55.557Z,99154.40
2023-10-29T13:47:24.315Z,99156.54
2023-10-29T13:49:51.067Z,99158.45
2023-10-29T13:52:17.916Z,99162.48
2023-10-29T13:54:45.003Z,99160.55
2023-10-29T13:57:12.144Z,99159.20
2023-10-29T13:59:39.137Z,99165.30
2023-10-29T14:02:06.423Z,99168.31
2023-10-29T14:04:34.453Z,99174.30
2023-10-29T14:07:01.842Z,99173.11
2023-10-29T14:09:30.394Z,99172.10
2023-10-29T14:11:57.387Z,99178.95
2023-10-29T14:14:24.598Z,99179.45
2023-10-29T14:16:51.548Z,99179.80
2023-10-29T14:19:20.935Z,99178.05
2023-10-29T14:21:53.408Z,99178.70
2023-10-29T14:24:20.402Z,99187.23
2023-10-29T14:26:47.143Z,99191.34
2023-10-29T14:29:14.055Z,99194.14
2023-10-29T14:31:40.986Z,99195.08
2023-10-29T14:34:08.034Z,99195.45
2023-10-29T14:36:35.008Z,99199.54
2023-10-29T14:39:02.581Z,99199.62
2023-10-29T14:41:29.481Z,99198.75
2023-10-29T14:43:56.375Z,99193.90
2023-10-29T14:46:23.175Z,99187.84
2023-10-29T14:48:50.105Z,99184.26
2023-10-29T14:51:16.994Z,99185.23
2023-10-29T14:53:43.786Z,99191.11
2023-10-29T14:56:10.648Z,99192.09
2023-10-29T14:58:37.474Z,99195.86
2023-10-29T15:01:08.269Z,99192.03
2023-10-29T15:03:35.403Z,99190.98
2023-10-29T15:06:09.111Z,99195.53
2023-10-29T15:08:37.043Z,99194.37
2023-10-29T15:11:03.970Z,99195.38
2023-10-29T15:13:32.385Z,99198.42
2023-10-29T15:16:14.236Z,99198.20
2023-10-29T15:18:41.834Z,99201.00
2023-10-29T15:21:09.890Z,99201.02
2023-10-29T15:23:36.916Z,99203.02
2023-10-29T15:26:15.231Z,99203.62
2023-10-29T15:28:42.892Z,99210.66
2023-10-29T15:31:10.366Z,99207.46
2023-10-29T15:33:37.522Z,99206.55
2023-10-29T15:36:06.149Z,99204.58
2023-10-29T15:38:33.257Z,99203.23
2023-10-29T15:41:00.199Z,99207.81
2023-10-29T15:43:27.939Z,99210.71
2023-10-29T15:45:55.345Z,99210.16
2023-10-29T15:48:22.919Z,99210.48
2023-10-29T15:50:53.733Z,99211.14
2023-10-29T15:53:21.267Z,99214.39
2023-10-29T15:55:48.117Z,99215.48
2023-10-29T15:58:19.059Z,99219.32
2023-10-29T16:00:50.046Z,99220.11
2023-10-29T16:03:17.070Z,99222.37
2023-10-29T16:05:43.861Z,99227.65
2023-10-29T16:08:10.795Z,99228.39
2023-10-29T16:10:37.971Z,99231.25
2023-10-29T16:13:05.610Z,99235.30
2023-10-29T16:15:32.637Z,99240.10
2023-10-29T16:17:59.887Z,99243.11
2023-10-29T16:20:27.169Z,99246.09
2023-10-29T16:22:54.209Z,99255.02
2023-10-29T16:25:21.151Z,99254.94
2023-10-29T16:27:47.888Z,99257.75
2023-10-29T16:30:14.979Z,99258.00
2023-10-29T16:32:41.936Z,99257.55
2023-10-29T16:35:09.035Z,99263.14
2023-10-29T16:37:35.989Z,99267.73
2023-10-29T16:40:03.237Z,99269.11
2023-10-29T16:42:30.396Z,99269.03
2023-10-29T16:44:57.463Z,99269.03
2023-10-29T16:47:24.417Z,99277.77
2023-10-29T16:49:52.028Z,99278.85
2023-10-29T16:52:19.073Z,99279.65
2023-10-29T16:54:46.325Z,99283.60
2023-10-29T16:57:13.668Z,99287.98
2023-10-29T16:59:41.298Z,99286.58
2023-10-29T17:02:08.389Z,99285.81
2023-10-29T17:07:09.356Z,99281.32
2023-10-29T17:09:39.871Z,99276.94
2023-10-29T17:12:07.692Z,99280.64
2023-10-29T17:14:34.685Z,99274.56
2023-10-29T17:17:01.752Z,99270.84
2023-10-29T17:19:28.776Z,99275.70
2023-10-29T17:21:56.059Z,99277.61
2023-10-29T17:24:27.307Z,99284.35
2023-10-29T17:26:55.287Z,99286.55
2023-10-29T17:29:22.610Z,99286.77
2023-10-29T17:31:49.682Z,99289.45
2023-10-29T17:34:16.711Z,99288.05
2023-10-29T17:36:45.579Z,99283.58
2023-10-29T17:39:15.713Z,99279.86
2023-10-29T17:41:42.648Z,99290.61
2023-10-29T17:44:09.895Z,99297.95
2023-10-29T17:46:36.743Z,99297.34
2023-10-29T17:49:04.500Z,99299.77
2023-10-29T17:51:31.507Z,99298.12
2023-10-29T17:53:58.560Z,99296.44
2023-10-29T17:56:25.777Z,99293.69
2023-10-29T17:58:56.579Z,99293.35
2023-10-29T18:01:23.429Z,99300.61
2023-10-29T18:03:54.492Z,99300.63
2023-10-29T18:06:23.514Z,99302.23
2023-10-29T18:08:51.078Z,99309.75
2023-10-29T18:11:18.570Z,99314.10
2023-10-29T18:13:45.926Z,99312.34
2023-10-29T18:16:12.739Z,99316.33
2023-10-29T18:18:39.887Z,99315.98
2023-10-29T18:21:07.200Z,99311.81
2023-10-29T18:23:34.217Z,99311.15
2023-10-29T18:26:01.166Z,99316.59
2023-10-29T18:28:31.925Z,99314.21
2023-10-29T18:31:03.858Z,99317.16
2023-10-29T18:33:32.276Z,99315.06
2023-10-29T18:36:09.273Z,99318.61
2023-10-29T18:38:37.796Z,99319.90
2023-10-29T18:41:13.988Z,99320.45
2023-10-29T18:43:40.800Z,99316.04
2023-10-29T18:46:11.698Z,99315.81
2023-10-29T18:48:38.540Z,99314.38
2023-10-29T18:51:05.572Z,99312.65
2023-10-29T18:53:32.481Z,99307.76
2023-10-29T18:55:59.410Z,99307.05
2023-10-29T18:58:26.277Z,99310.63
2023-10-29T19:00:53.913Z,99312.98
2023-10-29T19:03:21.536Z,99308.47
2023-10-29T19:05:48.621Z,99304.84
2023-10-29T19:08:18.445Z,99306.96
2023-10-29T19:10:47.164Z,99307.64
2023-10-29T19:13:15.908Z,99307.69
2023-10-29T19:15:42.881Z,99310.53
2023-10-29T19:18:09.833Z,99307.09
2023-10-29T19:20:36.946Z,99306.70
2023-10-29T19:23:06.045Z,99307.67
2023-10-29T19:25:35.754Z,99303.10
2023-10-29T19:28:02.706Z,99304.02
2023-10-29T19:30:30.026Z,99309.58
2023-10-29T19:32:57.648Z,99308.92
2023-10-29T19:35:24.553Z,99308.27
2023-10-29T19:37:51.325Z,99310.27
2023-10-29T19:40:18.340Z,99312.61
2023-10-29T19:42:45.219Z,99313.33
2023-10-29T19:45:12.164Z,99315.98
2023-10-29T19:47:40.274Z,99306.95
2023-10-29T19:50:08.415Z,99300.56
2023-10-29T19:52:35.837Z,99304.92
2023-10-29T19:55:02.893Z,99303.48
2023-10-29T19:57:31.275Z,99306.20
2023-10-29T19:59:58.239Z,99306.71
2023-10-29T20:02:25.709Z,99309.64
2023-10-29T20:04:55.871Z,99309.40
2023-10-29T20:07:22.626Z,99302.73
2023-10-29T20:09:49.686Z,99301.64
2023-10-29T20:12:17.484Z,99305.83
2023-10-29T20:14:44.367Z,99302.50
2023-10-29T20:17:11.331Z,99300.29
2023-10-29T20:19:38.567Z,99299.58
2023-10-29T20:22:06.050Z,99306.28
2023-10-29T20:24:33.004Z,99306.02
2023-10-29T20:27:00.211Z,99304.96
2023-10-29T20:29:27.191Z,99302.70
2023-10-29T20:31:54.027Z,99301.60
2023-10-29T20:34:22.237Z,99305.04
2023-10-29T20:36:50.962Z,99300.48
2023-10-29T20:39:17.939Z,99295.15
2023-10-29T20:41:44.851Z,99299.36
2023-10-29T20:44:13.468Z,99300.00
2023-10-29T20:46:40.442Z,99303.55
2023-10-29T20:49:07.838Z,99302.89
2023-10-29T20:51:34.505Z,99306.44
2023-10-29T20:54:01.657Z,99304.95
2023-10-29T20:56:28.676Z,99300.30
2023-10-29T20:58:55.310Z,99293.66
2023-10-29T21:01:22.073Z,99295.86
2023-10-29T21:03:49.601Z,99294.96
2023-10-29T21:06:16.929Z,99292.81
2023-10-29T21:08:43.904Z,99292.27
2023-10-29T21:11:14.168Z,99288.39
2023-10-29T21:13:44.250Z,99289.91
2023-10-29T21:16:11.128Z,99294.04
2023-10-29T21:18:38.308Z,99305.27
2023-10-29T21:21:05.210Z,99303.05
2023-10-29T21:23:32.058Z,99298.45
2023-10-29T21:25:58.875Z,99304.73
2023-10-29T21:28:25.730Z,99303.77
2023-10-29T21:30:52.840Z,99303.84
2023-10-29T21:33:19.794Z,99296.73
2023-10-29T21:35:47.851Z,99301.53
2023-10-29T21:38:16.066Z,99300.84
2023-10-29T21:40:43.039Z,99301.96
2023-10-29T21:43:11.160Z,99295.30
2023-10-29T21:45:43.872Z,99303.58
2023-10-29T21:48:10.954Z,99301.26
2023-10-29T21:50:41.557Z,99305.52
2023-10-29T21:53:12.016Z,99305.37
2023-10-29T21:55:38.611Z,99311.61
2023-10-29T21:58:09.252Z,99311.82
2023-10-29T22:00:36.406Z,99310.03
2023-10-29T22:03:03.992Z,99310.98
2023-10-29T22:05:31.278Z,99309.66
2023-10-29T22:07:58.629Z,99310.81
2023-10-29T22:10:25.489Z,99314.12
2023-10-29T22:12:52.415Z,99308.80
2023-10-29T22:15:19.085Z,99310.63
2023-10-29T22:17:45.832Z,99313.39
2023-10-29T22:20:12.661Z,99311.23
2023-10-29T22:22:39.379Z,99306.37
2023-10-29T22:25:06.928Z,99304.85
2023-10-29T22:27:33.736Z,99295.71
2023-10-29T22:30:00.712Z,99293.18
2023-10-29T22:32:28.419Z,99294.66
2023-10-29T22:34:55.447Z,99288.80
2023-10-29T22:37:22.279Z,99290.31
2023-10-29T22:39:49.168Z,99291.27
2023-10-29T22:42:16.087Z,99288.42
2023-10-29T22:44:43.003Z,99293.88
2023-10-29T22:47:09.942Z,99294.30
2023-10-29T22:49:36.795Z,99288.60
2023-10-29T22:52:03.767Z,99287.50
2023-10-29T22:54:30.599Z,99283.91
2023-10-29T22:56:57.459Z,99279.89
2023-10-29T22:59:24.262Z,99278.48
2023-10-29T23:01:51.467Z,99281.61
2023-10-29T23:04:19.318Z,99283.64
2023-10-29T23:06:46.323Z,99282.55
2023-10-29T23:09:13.235Z,99277.82
2023-10-29T23:11:40.108Z,99281.83
2023-10-29T23:14:07.071Z,99283.27
2023-10-29T23:16:33.961Z,99279.83
2023-10-29T23:19:00.864Z,99279.89
2023-10-29T23:21:27.620Z,99277.11
2023-10-29T23:23:55.280Z,99279.95
2023-10-29T23:26:21.979Z,99280.45
2023-10-29T23:28:48.720Z,99277.05
2023-10-29T23:31:15.532Z,99276.90
2023-10-29T23:33:42.352Z,99275.73
2023-10-29T23:36:09.277Z,99272.59
2023-10-29T23:38:36.144Z,99275.08
2023-10-29T23:41:03.247Z,99278.12
2023-10-29T23:43:30.296Z,99269.84
2023-10-29T23:45:57.161Z,99264.06
2023-10-29T23:48:25.352Z,99265.16
2023-10-29T23:50:52.895Z,99264.85
2023-10-29T23:53:19.700Z,99264.29
2023-10-29T23:55:46.891Z,99263.39
2023-10-29T23:58:13.589Z,99263.73
